createdAt,value
2022-10-07T00:01:00.197Z,102402.78
2022-10-07T00:03:46.943Z,102408.19
2022-10-07T00:06:20.872Z,102401.16
2022-10-07T00:08:51.787Z,102400.31
2022-10-07T00:11:23.091Z,102395.88
2022-10-07T00:13:55.618Z,102401.28
2022-10-07T00:16:33.619Z,102393.34
2022-10-07T00:19:03.500Z,102389.91
2022-10-07T00:21:33.510Z,102387.34
2022-10-07T00:24:00.638Z,102389.22
2022-10-07T00:26:31.254Z,102390.22
2022-10-07T00:28:58.369Z,102388.47
2022-10-07T00:31:32.192Z,102391.31
2022-10-07T00:33:59.855Z,102388.75
2022-10-07T00:36:37.279Z,102374.53
2022-10-07T00:39:12.859Z,102374.69
2022-10-07T00:41:41.284Z,102373.88
2022-10-07T00:44:32.372Z,102366.63
2022-10-07T00:47:21.249Z,102359.59
2022-10-07T00:50:06.199Z,102359.69
2022-10-07T00:52:44.512Z,102354.41
2022-10-07T00:55:20.764Z,102352.69
2022-10-07T00:57:52.984Z,102348.22
2022-10-07T01:00:23.412Z,102340.31
2022-10-07T01:02:52.128Z,102343.19
2022-10-07T01:05:20.607Z,102346.03
2022-10-07T01:07:50.691Z,102340.75
2022-10-07T01:10:21.744Z,102333.63
2022-10-07T01:13:32.476Z,102336.41
2022-10-07T01:16:13.183Z,102330.19
2022-10-07T01:18:58.336Z,102328.53
2022-10-07T01:21:58.100Z,102327.78
2022-10-07T01:24:49.945Z,102320.81
2022-10-07T01:27:23.777Z,102321.75
2022-10-07T01:30:01.344Z,102309.22
2022-10-07T01:32:40.600Z,102307.47
2022-10-07T01:35:15.902Z,102298.56
2022-10-07T01:37:49.501Z,102301.25
2022-10-07T01:40:24.612Z,102292.25
2022-10-07T01:42:52.054Z,102294.06
2022-10-07T01:45:24.959Z,102290.56
2022-10-07T01:47:53.196Z,102286.16
2022-10-07T01:50:26.303Z,102280.75
2022-10-07T01:53:04.755Z,102280.06
2022-10-07T01:55:40.495Z,102272.22
2022-10-07T01:58:36.556Z,102261.44
2022-10-07T02:01:41.829Z,102259.78
2022-10-07T02:04:45.629Z,102255.28
2022-10-07T02:07:43.324Z,102257.03
2022-10-07T02:10:34.402Z,102255.31
2022-10-07T02:13:26.018Z,102250.88
2022-10-07T02:16:37.342Z,102243.63
2022-10-07T02:19:13.954Z,102246.22
2022-10-07T02:21:44.353Z,102242.59
2022-10-07T02:24:15.475Z,102239.06
2022-10-07T02:26:47.349Z,102240.88
2022-10-07T02:29:20.203Z,102243.63
2022-10-07T02:31:51.606Z,102240.13
2022-10-07T02:34:24.403Z,102234.75
2022-10-07T02:36:58.801Z,102230.28
2022-10-07T02:39:28.985Z,102223.16
2022-10-07T02:42:18.756Z,102222.31
2022-10-07T02:45:00.961Z,102219.63
2022-10-07T02:47:41.236Z,102216.06
2022-10-07T02:50:14.892Z,102213.31
2022-10-07T02:52:45.021Z,102209.81
2022-10-07T02:55:19.134Z,102201.84
2022-10-07T02:57:53.094Z,102208.16
2022-10-07T03:00:20.722Z,102208.16
2022-10-07T03:02:56.357Z,102199.94
2022-10-07T03:05:29.568Z,102200.78
2022-10-07T03:08:06.204Z,102199.84
2022-10-07T03:10:35.345Z,102198.03
2022-10-07T03:13:04.884Z,102196.28
2022-10-07T03:15:41.154Z,102185.63
2022-10-07T03:18:26.602Z,102186.56
2022-10-07T03:21:02.409Z,102184.88
2022-10-07T03:23:30.228Z,102181.25
2022-10-07T03:25:59.760Z,102181.25
2022-10-07T03:28:30.302Z,102168.72
2022-10-07T03:31:09.107Z,102169.63
2022-10-07T03:33:38.919Z,102167.91
2022-10-07T03:36:08.510Z,102163.44
2022-10-07T03:38:37.179Z,102175.09
2022-10-07T03:41:04.785Z,102163.44
2022-10-07T03:43:33.683Z,102163.44
2022-10-07T03:46:02.500Z,102161.66
2022-10-07T03:48:31.768Z,102163.44
2022-10-07T03:50:59.229Z,102156.19
2022-10-07T03:53:29.733Z,102161.69
2022-10-07T03:55:58.579Z,102161.81
2022-10-07T03:58:25.806Z,102166.38
2022-10-07T04:00:52.708Z,102154.81
2022-10-07T04:03:20.182Z,102155.66
2022-10-07T04:06:01.453Z,102154.81
2022-10-07T04:08:33.092Z,102147.66
2022-10-07T04:11:03.118Z,102145.91
2022-10-07T04:13:31.781Z,102148.66
2022-10-07T04:15:59.109Z,102148.72
2022-10-07T04:18:26.753Z,102146.13
2022-10-07T04:20:53.928Z,102139.94
2022-10-07T04:23:21.543Z,102141.75
2022-10-07T04:25:48.391Z,102151.75
2022-10-07T04:28:26.113Z,102142.88
2022-10-07T04:31:04.886Z,102151.00
2022-10-07T04:33:40.044Z,102142.06
2022-10-07T04:36:10.354Z,102137.59
2022-10-07T04:38:54.418Z,102141.22
2022-10-07T04:41:25.974Z,102141.16
2022-10-07T04:43:57.615Z,102139.47
2022-10-07T04:46:26.296Z,102136.78
2022-10-07T04:49:00.180Z,102141.22
2022-10-07T04:51:28.290Z,102136.72
2022-10-07T04:53:58.164Z,102135.72
2022-10-07T04:56:31.354Z,102127.78
2022-10-07T04:58:58.854Z,102137.59
2022-10-07T05:01:26.013Z,102132.34
2022-10-07T05:03:52.994Z,102135.09
2022-10-07T05:06:20.608Z,102132.34
2022-10-07T05:08:48.612Z,102128.81
2022-10-07T05:11:15.926Z,102127.06
2022-10-07T05:13:52.477Z,102127.19
2022-10-07T05:16:20.528Z,102121.91
2022-10-07T05:18:47.395Z,102120.06
2022-10-07T05:21:15.618Z,102118.28
2022-10-07T05:23:45.480Z,102119.34
2022-10-07T05:26:16.804Z,102112.16
2022-10-07T05:28:49.366Z,102111.22
2022-10-07T05:31:20.434Z,102098.66
2022-10-07T05:33:52.348Z,102103.22
2022-10-07T05:36:21.999Z,102107.63
2022-10-07T05:38:50.296Z,102105.91
2022-10-07T05:41:17.418Z,102106.88
2022-10-07T05:43:47.171Z,102104.38
2022-10-07T05:46:23.081Z,102109.03
2022-10-07T05:48:54.461Z,102100.09
2022-10-07T05:51:26.228Z,102105.59
2022-10-07T05:53:56.243Z,102099.34
2022-10-07T05:56:45.896Z,102102.84
2022-10-07T05:59:14.816Z,102097.56
2022-10-07T06:01:43.575Z,102094.06
2022-10-07T06:04:15.741Z,102090.56
2022-10-07T06:06:46.168Z,102086.25
2022-10-07T06:09:32.694Z,102088.78
2022-10-07T06:12:22.481Z,102088.69
2022-10-07T06:14:51.520Z,102085.03
2022-10-07T06:17:18.394Z,102079.56
2022-10-07T06:19:46.881Z,102087.59
2022-10-07T06:22:15.616Z,102079.47
2022-10-07T06:24:43.479Z,102083.09
2022-10-07T06:27:10.843Z,102078.53
2022-10-07T06:29:39.080Z,102083.72
2022-10-07T06:32:06.586Z,102081.81
2022-10-07T06:34:33.722Z,102076.38
2022-10-07T06:37:00.895Z,102078.88
2022-10-07T06:39:27.739Z,102087.66
2022-10-07T06:41:57.185Z,102080.28
2022-10-07T06:44:39.268Z,102088.19
2022-10-07T06:47:11.601Z,102081.69
2022-10-07T06:49:40.207Z,102088.69
2022-10-07T06:52:07.110Z,102081.19
2022-10-07T06:54:34.599Z,102091.72
2022-10-07T06:57:01.653Z,102082.47
2022-10-07T06:59:29.654Z,102089.38
2022-10-07T07:02:11.753Z,102089.03
2022-10-07T07:04:40.699Z,102085.00
2022-10-07T07:07:07.882Z,102084.38
2022-10-07T07:09:34.709Z,102089.16
2022-10-07T07:12:02.052Z,102089.84
2022-10-07T07:14:36.710Z,102082.50
2022-10-07T07:17:12.013Z,102079.53
2022-10-07T07:19:39.230Z,102088.31
2022-10-07T07:22:06.928Z,102084.53
2022-10-07T07:24:33.683Z,102089.69
2022-10-07T07:27:00.791Z,102087.66
2022-10-07T07:29:30.670Z,102086.44
2022-10-07T07:32:02.217Z,102089.72
2022-10-07T07:34:34.038Z,102087.59
2022-10-07T07:37:01.170Z,102090.06
2022-10-07T07:39:34.355Z,102091.66
2022-10-07T07:42:12.093Z,102088.72
2022-10-07T07:44:40.182Z,102089.38
2022-10-07T07:47:12.849Z,102085.44
2022-10-07T07:49:39.899Z,102085.22
2022-10-07T07:52:10.137Z,102086.75
2022-10-07T07:54:43.866Z,102088.22
2022-10-07T07:57:11.737Z,102087.94
2022-10-07T07:59:38.964Z,102082.84
2022-10-07T08:02:12.133Z,102082.56
2022-10-07T08:04:41.197Z,102074.94
2022-10-07T08:07:13.157Z,102068.22
2022-10-07T08:09:42.958Z,102076.97
2022-10-07T08:12:10.239Z,102078.97
2022-10-07T08:14:38.077Z,102075.78
2022-10-07T08:17:06.149Z,102067.00
2022-10-07T08:19:33.438Z,102068.28
2022-10-07T08:22:01.113Z,102067.81
2022-10-07T08:24:30.135Z,102061.22
2022-10-07T08:26:56.865Z,102060.28
2022-10-07T08:29:24.020Z,102063.28
2022-10-07T08:31:51.490Z,102063.91
2022-10-07T08:34:18.560Z,102063.41
2022-10-07T08:36:47.555Z,102068.78
2022-10-07T08:39:15.593Z,102060.94
2022-10-07T08:41:51.146Z,102064.75
2022-10-07T08:44:32.388Z,102065.38
2022-10-07T08:47:02.699Z,102050.09
2022-10-07T08:49:58.355Z,102056.75
2022-10-07T08:52:50.976Z,102046.16
2022-10-07T08:55:45.837Z,102044.84
2022-10-07T08:58:43.329Z,102039.66
2022-10-07T09:01:49.627Z,102042.00
2022-10-07T09:04:41.394Z,102036.84
2022-10-07T09:07:26.810Z,102034.34
2022-10-07T09:10:37.434Z,102022.94
2022-10-07T09:13:24.662Z,102027.63
2022-10-07T09:16:17.266Z,102024.53
2022-10-07T09:18:58.741Z,102023.09
2022-10-07T09:21:42.336Z,102022.31
2022-10-07T09:24:26.077Z,102012.75
2022-10-07T09:26:59.534Z,102013.25
2022-10-07T09:29:30.040Z,102018.00
2022-10-07T09:31:58.218Z,102016.41
2022-10-07T09:34:31.002Z,102018.53
2022-10-07T09:37:15.016Z,102018.06
2022-10-07T09:39:44.790Z,102013.31
2022-10-07T09:42:35.151Z,102010.94
2022-10-07T09:45:19.207Z,102002.50
2022-10-07T09:47:53.262Z,102009.38
2022-10-07T09:50:39.741Z,101994.28
2022-10-07T09:53:32.970Z,101987.69
2022-10-07T09:55:59.830Z,101990.41
2022-10-07T09:58:31.743Z,101985.63
2022-10-07T10:01:10.162Z,101985.97
2022-10-07T10:03:38.426Z,101974.81
2022-10-07T10:06:09.480Z,101984.16
2022-10-07T10:08:57.572Z,101972.84
2022-10-07T10:11:30.511Z,101974.28
2022-10-07T10:13:57.296Z,101975.38
2022-10-07T10:16:37.540Z,101964.06
2022-10-07T10:19:21.474Z,101961.44
2022-10-07T10:21:56.962Z,101964.28
2022-10-07T10:24:47.361Z,101965.56
2022-10-07T10:27:30.253Z,101959.47
2022-10-07T10:30:05.348Z,101947.91
2022-10-07T10:33:25.758Z,101945.25
2022-10-07T10:36:22.179Z,101940.06
2022-10-07T10:39:04.363Z,101933.66
2022-10-07T10:41:54.632Z,101929.59
2022-10-07T10:44:36.242Z,101923.19
2022-10-07T10:47:55.773Z,101927.72
2022-10-07T10:50:42.858Z,101921.78
2022-10-07T10:53:21.474Z,101923.56
2022-10-07T10:56:16.041Z,101906.72
2022-10-07T10:59:30.519Z,101906.22
2022-10-07T11:02:43.028Z,101898.47
2022-10-07T11:05:42.523Z,101896.00
2022-10-07T11:08:27.353Z,101901.84
2022-10-07T11:11:07.317Z,101892.22
2022-10-07T11:13:54.206Z,101887.88
2022-10-07T11:16:30.960Z,101885.16
2022-10-07T11:19:35.737Z,101887.50
2022-10-07T11:22:03.353Z,101882.66
2022-10-07T11:24:42.881Z,101878.47
2022-10-07T11:27:29.559Z,101869.69
2022-10-07T11:30:20.025Z,101868.69
2022-10-07T11:33:09.881Z,101860.03
2022-10-07T11:36:03.918Z,101859.41
2022-10-07T11:38:39.000Z,101847.88
2022-10-07T11:41:16.162Z,101848.38
2022-10-07T11:43:58.253Z,101833.63
2022-10-07T11:46:36.651Z,101819.88
2022-10-07T11:49:25.443Z,101823.06
2022-10-07T11:52:07.715Z,101817.13
2022-10-07T11:54:51.474Z,101804.31
2022-10-07T11:57:25.317Z,101802.69
2022-10-07T12:00:19.907Z,101796.97
2022-10-07T12:02:48.666Z,101798.44
2022-10-07T12:05:47.832Z,101788.75
2022-10-07T12:08:32.622Z,101792.94
2022-10-07T12:11:12.362Z,101790.94
2022-10-07T12:13:45.254Z,101787.13
2022-10-07T12:16:23.922Z,101771.59
2022-10-07T12:19:10.505Z,101767.34
2022-10-07T12:22:02.973Z,101762.78
2022-10-07T12:24:36.272Z,101761.66
2022-10-07T12:27:16.055Z,101749.06
2022-10-07T12:30:02.440Z,101753.84
2022-10-07T12:32:52.022Z,101739.78
2022-10-07T12:35:35.181Z,101742.44
2022-10-07T12:38:24.201Z,101733.94
2022-10-07T12:41:11.762Z,101722.56
2022-10-07T12:43:50.520Z,101727.22
2022-10-07T12:46:22.848Z,101726.59
2022-10-07T12:49:02.576Z,101724.47
2022-10-07T12:51:40.260Z,101711.56
2022-10-07T12:54:26.056Z,101700.69
2022-10-07T12:56:53.130Z,101694.75
2022-10-07T12:59:47.492Z,101700.22
2022-10-07T13:02:49.303Z,101692.28
2022-10-07T13:05:33.265Z,101684.91
2022-10-07T13:08:27.727Z,101684.16
2022-10-07T13:11:18.716Z,101686.88
2022-10-07T13:14:06.056Z,101677.81
2022-10-07T13:16:42.797Z,101677.41
2022-10-07T13:19:30.903Z,101674.16
2022-10-07T13:22:19.474Z,101673.47
2022-10-07T13:24:55.299Z,101661.22
2022-10-07T13:27:28.143Z,101657.91
2022-10-07T13:29:59.320Z,101660.25
2022-10-07T13:32:29.771Z,101653.03
2022-10-07T13:34:59.372Z,101649.41
2022-10-07T13:37:30.067Z,101653.72
2022-10-07T13:40:19.956Z,101645.59
2022-10-07T13:42:55.481Z,101643.81
2022-10-07T13:45:28.693Z,101642.09
2022-10-07T13:47:58.653Z,101648.88
2022-10-07T13:50:32.436Z,101635.25
2022-10-07T13:52:59.643Z,101629.25
2022-10-07T13:55:26.293Z,101622.22
2022-10-07T13:57:57.271Z,101615.72
2022-10-07T14:00:25.615Z,101614.50
2022-10-07T14:02:53.076Z,101612.16
2022-10-07T14:05:28.480Z,101607.91
2022-10-07T14:08:10.791Z,101600.69
2022-10-07T14:11:06.350Z,101591.72
2022-10-07T14:13:37.756Z,101590.97
2022-10-07T14:16:04.677Z,101588.09
2022-10-07T14:18:32.076Z,101581.31
2022-10-07T14:21:16.983Z,101580.75
2022-10-07T14:23:48.940Z,101577.53
2022-10-07T14:26:17.634Z,101579.88
2022-10-07T14:28:44.877Z,101576.13
2022-10-07T14:31:39.782Z,101573.19
2022-10-07T14:34:39.334Z,101566.81
2022-10-07T14:37:10.279Z,101573.19
2022-10-07T14:39:42.535Z,101575.28
2022-10-07T14:42:33.356Z,101561.66
2022-10-07T14:45:04.825Z,101562.72
2022-10-07T14:47:38.072Z,101558.34
2022-10-07T14:50:05.520Z,101548.00
2022-10-07T14:52:42.074Z,101553.78
2022-10-07T14:55:18.524Z,101546.00
2022-10-07T14:57:47.193Z,101548.31
2022-10-07T15:00:20.162Z,101542.19
2022-10-07T15:02:50.123Z,101543.59
2022-10-07T15:05:18.867Z,101532.03
2022-10-07T15:07:46.059Z,101535.84
2022-10-07T15:10:22.102Z,101532.75
2022-10-07T15:12:50.078Z,101531.28
2022-10-07T15:15:17.186Z,101536.72
2022-10-07T15:17:44.406Z,101523.09
2022-10-07T15:20:14.650Z,101524.22
2022-10-07T15:22:42.905Z,101524.22
2022-10-07T15:25:11.855Z,101511.88
2022-10-07T15:27:38.646Z,101514.91
2022-10-07T15:30:07.254Z,101509.34
2022-10-07T15:32:34.499Z,101515.59
2022-10-07T15:35:01.609Z,101512.41
2022-10-07T15:37:28.442Z,101508.72
2022-10-07T15:39:55.314Z,101501.84
2022-10-07T15:42:25.921Z,101497.41
2022-10-07T15:44:53.692Z,101486.03
2022-10-07T15:47:20.974Z,101485.56
2022-10-07T15:49:48.984Z,101482.00
2022-10-07T15:52:16.127Z,101485.47
2022-10-07T15:54:43.586Z,101483.13
2022-10-07T15:57:10.429Z,101479.69
2022-10-07T15:59:37.210Z,101479.09
2022-10-07T16:02:06.037Z,101475.34
2022-10-07T16:04:32.960Z,101476.19
2022-10-07T16:06:59.845Z,101474.31
2022-10-07T16:09:26.954Z,101471.25
2022-10-07T16:11:54.076Z,101467.81
2022-10-07T16:14:20.885Z,101465.19
2022-10-07T16:16:47.642Z,101476.31
2022-10-07T16:19:14.601Z,101464.63
2022-10-07T16:21:43.221Z,101473.03
2022-10-07T16:24:19.986Z,101467.53
2022-10-07T16:26:50.540Z,101475.81
2022-10-07T16:29:39.326Z,101473.19
2022-10-07T16:32:11.373Z,101467.81
2022-10-07T16:34:43.383Z,101466.88
2022-10-07T16:37:11.921Z,101468.66
2022-10-07T16:39:38.791Z,101462.25
2022-10-07T16:42:06.265Z,101461.28
2022-10-07T16:44:33.090Z,101462.81
2022-10-07T16:47:00.633Z,101455.41
2022-10-07T16:49:29.315Z,101455.34
2022-10-07T16:51:57.564Z,101464.16
2022-10-07T16:54:25.240Z,101459.22
2022-10-07T16:56:52.888Z,101463.19
2022-10-07T16:59:24.015Z,101456.53
2022-10-07T17:01:55.563Z,101464.22
2022-10-07T17:04:24.446Z,101459.28
2022-10-07T17:06:51.502Z,101457.19
2022-10-07T17:09:18.747Z,101458.56
2022-10-07T17:11:46.613Z,101459.06
2022-10-07T17:14:18.483Z,101450.38
2022-10-07T17:16:52.379Z,101451.75
2022-10-07T17:19:23.356Z,101449.63
2022-10-07T17:21:52.345Z,101459.28
2022-10-07T17:24:22.895Z,101462.53
2022-10-07T17:26:52.425Z,101452.00
2022-10-07T17:29:21.613Z,101458.78
2022-10-07T17:31:50.545Z,101459.31
2022-10-07T17:34:20.741Z,101463.25
2022-10-07T17:36:50.150Z,101456.56
2022-10-07T17:39:19.736Z,101462.47
2022-10-07T17:41:47.662Z,101463.72
2022-10-07T17:44:15.145Z,101473.13
2022-10-07T17:46:42.764Z,101468.91
2022-10-07T17:49:14.824Z,101463.94
2022-10-07T17:51:43.330Z,101468.13
2022-10-07T17:54:13.644Z,101466.88
2022-10-07T17:56:42.401Z,101461.91
2022-10-07T17:59:09.251Z,101465.97
2022-10-07T18:01:36.345Z,101468.28
2022-10-07T18:04:07.457Z,101460.72
2022-10-07T18:06:38.321Z,101458.56
2022-10-07T18:09:09.813Z,101459.06
2022-10-07T18:11:55.473Z,101456.78
2022-10-07T18:14:41.723Z,101456.25
2022-10-07T18:17:10.538Z,101456.72
2022-10-07T18:19:39.718Z,101451.53
2022-10-07T18:22:07.170Z,101450.03
2022-10-07T18:24:34.362Z,101448.53
2022-10-07T18:27:01.787Z,101439.63
2022-10-07T18:29:37.489Z,101438.00
2022-10-07T18:32:06.582Z,101447.25
2022-10-07T18:34:33.485Z,101460.09
2022-10-07T18:37:00.798Z,101449.34
2022-10-07T18:39:29.434Z,101445.97
2022-10-07T18:41:57.098Z,101453.47
2022-10-07T18:44:24.302Z,101448.41
2022-10-07T18:46:51.385Z,101441.44
2022-10-07T18:49:18.408Z,101439.94
2022-10-07T18:51:47.072Z,101450.16
2022-10-07T18:54:13.944Z,101444.94
2022-10-07T18:56:41.587Z,101444.31
2022-10-07T18:59:13.003Z,101448.03
2022-10-07T19:01:40.721Z,101439.34
2022-10-07T19:04:09.709Z,101442.28
2022-10-07T19:06:43.059Z,101435.22
2022-10-07T19:09:16.083Z,101438.31
2022-10-07T19:11:42.996Z,101435.03
2022-10-07T19:14:10.643Z,101449.03
2022-10-07T19:16:45.074Z,101450.25
2022-10-07T19:19:16.889Z,101446.03
2022-10-07T19:21:51.434Z,101445.28
2022-10-07T19:24:20.256Z,101440.06
2022-10-07T19:26:49.957Z,101434.84
2022-10-07T19:29:18.374Z,101437.88
2022-10-07T19:31:49.011Z,101437.22
2022-10-07T19:34:21.864Z,101432.25
2022-10-07T19:36:49.968Z,101437.88
2022-10-07T19:39:21.313Z,101432.75
2022-10-07T19:41:49.449Z,101427.44
2022-10-07T19:44:16.679Z,101422.25
2022-10-07T19:46:44.133Z,101416.06
2022-10-07T19:49:11.108Z,101419.75
2022-10-07T19:51:40.274Z,101417.25
2022-10-07T19:54:10.043Z,101406.63
2022-10-07T19:56:38.401Z,101414.13
2022-10-07T19:59:09.725Z,101409.91
2022-10-07T20:01:42.962Z,101405.53
2022-10-07T20:04:17.070Z,101405.75
2022-10-07T20:06:44.422Z,101400.56
2022-10-07T20:09:15.699Z,101406.19
2022-10-07T20:11:43.413Z,101397.28
2022-10-07T20:14:10.437Z,101399.16
2022-10-07T20:16:38.235Z,101398.38
2022-10-07T20:19:08.326Z,101394.03
2022-10-07T20:21:37.945Z,101391.44
2022-10-07T20:24:06.655Z,101387.97
2022-10-07T20:26:36.963Z,101394.47
2022-10-07T20:29:07.418Z,101404.56
2022-10-07T20:31:38.553Z,101397.38
2022-10-07T20:34:07.659Z,101381.13
2022-10-07T20:36:38.006Z,101388.19
2022-10-07T20:39:27.013Z,101393.72
2022-10-07T20:42:12.657Z,101393.81
2022-10-07T20:44:39.706Z,101387.53
2022-10-07T20:47:09.541Z,101382.88
2022-10-07T20:49:41.278Z,101379.16
2022-10-07T20:52:18.068Z,101390.00
2022-10-07T20:54:47.215Z,101385.59
2022-10-07T20:57:17.752Z,101392.97
2022-10-07T20:59:44.689Z,101384.81
2022-10-07T21:02:14.343Z,101387.31
2022-10-07T21:04:41.522Z,101383.53
2022-10-07T21:07:09.218Z,101387.97
2022-10-07T21:09:36.740Z,101379.72
2022-10-07T21:12:10.769Z,101381.47
2022-10-07T21:14:37.940Z,101372.56
2022-10-07T21:17:06.783Z,101382.44
2022-10-07T21:19:36.048Z,101387.84
2022-10-07T21:22:05.264Z,101378.53
2022-10-07T21:24:34.481Z,101374.09
2022-10-07T21:27:07.611Z,101379.72
2022-10-07T21:29:40.121Z,101375.16
2022-10-07T21:32:09.302Z,101367.13
2022-10-07T21:34:36.873Z,101361.72
2022-10-07T21:37:04.816Z,101365.41
2022-10-07T21:39:32.225Z,101369.31
2022-10-07T21:41:59.782Z,101362.16
2022-10-07T21:44:27.518Z,101356.84
2022-10-07T21:46:54.337Z,101356.19
2022-10-07T21:49:21.093Z,101347.28
2022-10-07T21:51:48.020Z,101358.13
2022-10-07T21:54:15.542Z,101355.66
2022-10-07T21:56:45.869Z,101353.91
2022-10-07T21:59:13.923Z,101349.59
2022-10-07T22:01:41.831Z,101341.56
2022-10-07T22:04:17.032Z,101344.38
2022-10-07T22:07:02.857Z,101343.72
2022-10-07T22:09:31.062Z,101344.91
2022-10-07T22:11:57.886Z,101338.94
2022-10-07T22:14:24.743Z,101334.38
2022-10-07T22:16:51.482Z,101330.06
2022-10-07T22:19:18.560Z,101328.09
2022-10-07T22:21:45.922Z,101327.34
2022-10-07T22:24:13.898Z,101326.59
2022-10-07T22:26:46.138Z,101322.88
2022-10-07T22:29:16.203Z,101323.75
2022-10-07T22:31:43.125Z,101324.63
2022-10-07T22:34:29.898Z,101315.53
2022-10-07T22:36:58.088Z,101313.69
2022-10-07T22:39:26.497Z,101310.00
2022-10-07T22:41:53.630Z,101309.91
2022-10-07T22:44:20.770Z,101311.66
2022-10-07T22:46:47.696Z,101306.88
2022-10-07T22:49:15.071Z,101311.31
2022-10-07T22:51:42.530Z,101307.50
2022-10-07T22:54:13.110Z,101307.50
2022-10-07T22:56:40.530Z,101311.00
2022-10-07T22:59:08.568Z,101306.34
2022-10-07T23:01:35.835Z,101307.09
2022-10-07T23:04:03.990Z,101306.91
2022-10-07T23:06:34.818Z,101306.66
2022-10-07T23:09:03.963Z,101304.50
2022-10-07T23:11:31.281Z,101299.72
2022-10-07T23:13:58.545Z,101287.78
2022-10-07T23:16:34.028Z,101286.38
2022-10-07T23:19:00.927Z,101285.22
2022-10-07T23:21:33.913Z,101292.03
2022-10-07T23:24:06.905Z,101279.88
2022-10-07T23:26:35.803Z,101279.78
2022-10-07T23:29:04.036Z,101278.66
2022-10-07T23:31:32.522Z,101279.09
2022-10-07T23:34:01.904Z,101282.31
2022-10-07T23:36:29.613Z,101275.81
2022-10-07T23:38:59.873Z,101268.44
2022-10-07T23:41:29.640Z,101268.22
2022-10-07T23:44:00.385Z,101269.84
2022-10-07T23:46:28.831Z,101265.16
2022-10-07T23:48:56.112Z,101262.22
2022-10-07T23:51:27.841Z,101263.84
2022-10-07T23:54:02.111Z,101262.88
2022-10-07T23:56:29.963Z,101265.56
2022-10-07T23:58:56.874Z,101269.25
